Terminal Aerodrome Forecast
Issued by NWS

Home | Current Version | Previous Version | Text Only | Print | Product List | Glossary On
Versions: 1 2 3 4 5 6 7 8 9 10 11 12
000
FTUS44 KEPZ 301100 RRA
TAFTCS
TAF
KTCS 301142Z 3012/3112 30006KT P6SM SKC
     FM301900 04009KT P6SM SKC
     FM310400 07012G18KT P6SM SCT250=

USA.gov is the U.S. government's official web portal to all federal, state and local government web resources and services.